Terminal Aerodrome Forecast
Issued by NWS Sioux Falls, SD

Home | Current Version | Previous Version | Text Only | Print | Product List | Glossary On
Versions: 1 2 3 4 5 6 7 8 9 10 11 12 13 14 15 16 17 18 19 20 21 22 23 24 25 26 27 28 29 30 31 32 33
000
FTUS43 KFSD 060520
TAFSUX
TAF
KSUX 060520Z 0606/0706 16013KT P6SM BKN150
     FM060900 18010KT P6SM VCTS SCT070CB OVC150
      TEMPO 0610/0612 VRB25G40KT 3SM TSRA BKN025CB
     FM061400 31015G23KT 6SM SHRA SCT020 OVC050
     FM062000 36018G26KT P6SM BKN050
     FM070200 36010KT P6SM SKC=

USA.gov is the U.S. government's official web portal to all federal, state and local government web resources and services.